createdAt,value
2018-12-22T00:00:31.595Z,19.25
2018-12-22T00:01:32.006Z,19.25
2018-12-22T00:02:32.392Z,19.25
2018-12-22T00:03:31.477Z,19.25
2018-12-22T00:04:31.798Z,19.25
2018-12-22T00:05:31.551Z,19.25
2018-12-22T00:06:31.522Z,19.25
2018-12-22T00:07:31.666Z,19.25
2018-12-22T00:08:31.425Z,19.25
2018-12-22T00:09:31.477Z,19.25
2018-12-22T00:10:31.768Z,19.25
2018-12-22T00:11:31.513Z,19.25
2018-12-22T00:12:31.584Z,19.25
2018-12-22T00:13:31.578Z,19.25
2018-12-22T00:14:32.103Z,19.25
2018-12-22T00:15:32.010Z,19.25
2018-12-22T00:16:31.504Z,19.25
2018-12-22T00:17:31.830Z,19.25
2018-12-22T00:18:31.381Z,19.25
2018-12-22T00:19:31.444Z,19.25
2018-12-22T00:20:31.731Z,19.25
2018-12-22T00:21:31.465Z,19.25
2018-12-22T00:22:31.593Z,19.25
2018-12-22T00:23:31.508Z,19.25
2018-12-22T00:24:31.615Z,19.25
2018-12-22T00:25:31.433Z,19.25
2018-12-22T00:26:31.691Z,19.25
2018-12-22T00:27:31.716Z,19.25
2018-12-22T00:28:31.507Z,19.25
2018-12-22T00:29:31.758Z,19.25
2018-12-22T00:30:31.546Z,19.25
2018-12-22T00:31:30.784Z,19
2018-12-22T00:32:31.454Z,19.25
2018-12-22T00:33:31.730Z,19
2018-12-22T00:34:31.542Z,19.25
2018-12-22T00:35:31.818Z,19
2018-12-22T00:36:31.315Z,19
2018-12-22T00:37:32.293Z,19
2018-12-22T00:38:31.697Z,19
2018-12-22T00:39:31.700Z,19
2018-12-22T00:40:31.488Z,19
2018-12-22T00:41:30.947Z,19
2018-12-22T00:42:31.619Z,19
2018-12-22T00:43:31.416Z,19
2018-12-22T00:44:31.666Z,19
2018-12-22T00:45:31.478Z,19
2018-12-22T00:46:30.949Z,19
2018-12-22T00:47:32.334Z,19
2018-12-22T00:48:31.654Z,19
2018-12-22T00:49:31.432Z,19
2018-12-22T00:50:31.455Z,19
2018-12-22T00:51:31.535Z,19
2018-12-22T00:52:31.362Z,19
2018-12-22T00:53:31.847Z,19
2018-12-22T00:54:31.644Z,19
2018-12-22T00:55:30.961Z,19
2018-12-22T00:56:31.547Z,19
2018-12-22T00:57:31.357Z,19
2018-12-22T00:58:31.585Z,19
2018-12-22T00:59:31.664Z,19
2018-12-22T01:00:31.689Z,19
2018-12-22T01:01:31.493Z,19
2018-12-22T01:02:31.775Z,19
2018-12-22T01:03:31.684Z,19
2018-12-22T01:04:30.922Z,19
2018-12-22T01:05:31.666Z,19
2018-12-22T01:06:31.442Z,19
2018-12-22T01:07:31.435Z,19
2018-12-22T01:08:31.572Z,19
2018-12-22T01:09:31.890Z,19
2018-12-22T01:10:31.674Z,19
2018-12-22T01:11:31.659Z,19
2018-12-22T01:12:31.510Z,19
2018-12-22T01:13:31.534Z,19
2018-12-22T01:14:31.310Z,19
2018-12-22T01:15:31.644Z,19
2018-12-22T01:16:31.151Z,19
2018-12-22T01:17:31.406Z,19
2018-12-22T01:18:31.485Z,19
2018-12-22T01:19:31.481Z,19
2018-12-22T01:20:31.295Z,19
2018-12-22T01:21:31.662Z,19
2018-12-22T01:22:31.436Z,19
2018-12-22T01:23:31.664Z,19
2018-12-22T01:24:31.471Z,19
2018-12-22T01:25:31.247Z,19
2018-12-22T01:26:31.547Z,19
2018-12-22T01:27:31.310Z,19
2018-12-22T01:28:39.851Z,19
2018-12-22T01:29:31.307Z,19
2018-12-22T01:30:31.405Z,19
2018-12-22T01:31:31.403Z,19
2018-12-22T01:32:31.472Z,19
2018-12-22T01:33:31.775Z,19
2018-12-22T01:34:31.418Z,19
2018-12-22T01:35:31.585Z,19
2018-12-22T01:36:31.638Z,19
2018-12-22T01:37:30.702Z,19
2018-12-22T01:38:31.185Z,19
2018-12-22T01:39:31.837Z,19
2018-12-22T01:40:31.081Z,19
2018-12-22T01:41:31.922Z,19
2018-12-22T01:42:31.681Z,19
2018-12-22T01:43:31.734Z,19
2018-12-22T01:44:32.036Z,19
2018-12-22T01:45:31.554Z,19
2018-12-22T01:46:31.782Z,19
2018-12-22T01:47:31.387Z,19
2018-12-22T01:48:31.360Z,18.75
2018-12-22T01:49:30.885Z,19
2018-12-22T01:50:31.483Z,18.75
2018-12-22T01:51:31.790Z,19
2018-12-22T01:52:31.331Z,18.75
2018-12-22T01:53:31.841Z,18.75
2018-12-22T01:54:32.151Z,19
2018-12-22T01:55:30.927Z,18.75
2018-12-22T01:56:31.771Z,18.75
2018-12-22T01:57:31.533Z,18.75
2018-12-22T01:58:31.334Z,18.75
2018-12-22T01:59:31.352Z,18.75
2018-12-22T02:00:31.402Z,19
2018-12-22T02:01:31.446Z,18.75
2018-12-22T02:02:32.038Z,18.75
2018-12-22T02:03:31.509Z,18.75
2018-12-22T02:04:31.539Z,18.75
2018-12-22T02:05:31.615Z,18.75
2018-12-22T02:06:31.389Z,18.75
2018-12-22T02:07:31.694Z,18.75
2018-12-22T02:08:31.688Z,18.75
2018-12-22T02:09:31.489Z,18.75
2018-12-22T02:10:31.600Z,18.75
2018-12-22T02:11:31.553Z,18.75
2018-12-22T02:12:31.428Z,18.75
2018-12-22T02:13:31.418Z,18.75
2018-12-22T02:14:31.476Z,18.75
2018-12-22T02:15:31.534Z,18.75
2018-12-22T02:16:31.334Z,18.75
2018-12-22T02:17:31.595Z,18.75
2018-12-22T02:18:31.867Z,18.75
2018-12-22T02:19:31.186Z,18.75
2018-12-22T02:20:31.485Z,18.75
2018-12-22T02:21:31.454Z,18.75
2018-12-22T02:22:31.604Z,18.75
2018-12-22T02:23:31.571Z,18.75
2018-12-22T02:24:31.694Z,18.75
2018-12-22T02:25:31.425Z,18.75
2018-12-22T02:26:31.759Z,18.75
2018-12-22T02:27:31.243Z,18.75
2018-12-22T02:28:31.296Z,18.75
2018-12-22T02:29:31.582Z,18.75
2018-12-22T02:30:31.634Z,18.75
2018-12-22T02:31:31.428Z,18.75
2018-12-22T02:32:31.492Z,18.75
2018-12-22T02:33:31.466Z,18.75
2018-12-22T02:34:31.265Z,18.75
2018-12-22T02:35:31.560Z,18.75
2018-12-22T02:36:31.659Z,18.75
2018-12-22T02:37:31.707Z,18.75
2018-12-22T02:38:31.428Z,18.75
2018-12-22T02:39:31.510Z,18.75
2018-12-22T02:40:31.835Z,18.75
2018-12-22T02:41:31.652Z,18.75
2018-12-22T02:42:31.972Z,18.75
2018-12-22T02:43:32.083Z,18.75
2018-12-22T02:44:31.878Z,18.75
2018-12-22T02:45:31.534Z,18.75
2018-12-22T02:46:31.279Z,18.75
2018-12-22T02:47:31.572Z,18.75
2018-12-22T02:48:31.372Z,18.75
2018-12-22T02:49:31.516Z,18.75
2018-12-22T02:50:31.476Z,18.75
2018-12-22T02:51:31.771Z,18.75
2018-12-22T02:52:31.346Z,18.75
2018-12-22T02:53:31.844Z,18.75
2018-12-22T02:54:31.545Z,18.75
2018-12-22T02:55:31.618Z,18.75
2018-12-22T02:56:31.217Z,18.75
2018-12-22T02:57:31.834Z,18.75
2018-12-22T02:58:31.627Z,18.75
2018-12-22T02:59:31.595Z,18.75
2018-12-22T03:00:31.469Z,18.75
2018-12-22T03:01:31.464Z,18.75
2018-12-22T03:02:31.289Z,18.75
2018-12-22T03:03:31.542Z,18.75
2018-12-22T03:04:31.377Z,18.75
2018-12-22T03:05:31.387Z,18.75
2018-12-22T03:06:31.465Z,18.75
2018-12-22T03:07:31.743Z,18.75
2018-12-22T03:08:31.514Z,18.75
2018-12-22T03:09:31.533Z,18.75
2018-12-22T03:10:31.816Z,18.75
2018-12-22T03:11:31.405Z,18.75
2018-12-22T03:12:31.694Z,18.75
2018-12-22T03:13:31.490Z,18.75
2018-12-22T03:14:31.764Z,18.75
2018-12-22T03:15:31.589Z,18.75
2018-12-22T03:16:31.543Z,18.75
2018-12-22T03:17:31.665Z,18.75
2018-12-22T03:18:31.677Z,18.75
2018-12-22T03:19:31.707Z,18.75
2018-12-22T03:20:31.796Z,18.75
2018-12-22T03:21:31.514Z,18.75
2018-12-22T03:22:32.290Z,18.75
2018-12-22T03:23:31.594Z,18.75
2018-12-22T03:24:31.361Z,18.75
2018-12-22T03:25:31.214Z,18.75
2018-12-22T03:26:31.712Z,18.75
2018-12-22T03:27:31.270Z,18.75
2018-12-22T03:28:31.340Z,18.75
2018-12-22T03:29:31.638Z,18.75
2018-12-22T03:30:31.951Z,18.75
2018-12-22T03:31:31.701Z,18.75
2018-12-22T03:32:31.505Z,18.75
2018-12-22T03:33:31.514Z,18.75
2018-12-22T03:34:31.611Z,18.75
2018-12-22T03:35:31.379Z,18.75
2018-12-22T03:36:31.361Z,18.75
2018-12-22T03:37:31.429Z,18.5
2018-12-22T03:38:31.932Z,18.75
2018-12-22T03:39:31.249Z,18.75
2018-12-22T03:40:31.785Z,18.75
2018-12-22T03:41:31.580Z,18.75
2018-12-22T03:42:31.404Z,18.5
2018-12-22T03:43:30.901Z,18.5
2018-12-22T03:44:31.720Z,18.5
2018-12-22T03:45:31.811Z,18.5
2018-12-22T03:46:30.961Z,18.5
2018-12-22T03:47:31.616Z,18.5
2018-12-22T03:48:32.205Z,18.5
2018-12-22T03:49:31.499Z,18.5
2018-12-22T03:50:31.768Z,18.5
2018-12-22T03:51:30.792Z,18.5
2018-12-22T03:52:31.093Z,18.5
2018-12-22T03:53:31.393Z,18.5
2018-12-22T03:54:31.711Z,18.5
2018-12-22T03:55:31.220Z,18.5
2018-12-22T03:56:31.706Z,18.5
2018-12-22T03:57:31.315Z,18.5
2018-12-22T03:58:31.595Z,18.5
2018-12-22T03:59:31.592Z,18.5
2018-12-22T04:00:30.922Z,18.5
2018-12-22T04:01:31.717Z,18.5
2018-12-22T04:02:31.273Z,18.5
2018-12-22T04:03:31.570Z,18.5
2018-12-22T04:04:32.017Z,18.5
2018-12-22T04:05:31.614Z,18.5
2018-12-22T04:06:31.460Z,18.5
2018-12-22T04:07:31.450Z,18.5
2018-12-22T04:08:31.768Z,18.5
2018-12-22T04:09:32.252Z,18.5
2018-12-22T04:10:31.590Z,18.5
2018-12-22T04:11:31.411Z,18.5
2018-12-22T04:12:31.695Z,18.5
2018-12-22T04:13:31.437Z,18.5
2018-12-22T04:14:31.553Z,18.5
2018-12-22T04:15:31.767Z,18.5
2018-12-22T04:16:31.566Z,18.5
2018-12-22T04:17:31.637Z,18.5
2018-12-22T04:18:31.645Z,18.5
2018-12-22T04:19:31.454Z,18.5
2018-12-22T04:20:31.455Z,18.5
2018-12-22T04:21:31.514Z,18.5
2018-12-22T04:22:31.556Z,18.5
2018-12-22T04:23:31.581Z,18.5
2018-12-22T04:24:31.902Z,18.5
2018-12-22T04:25:30.893Z,18.5
2018-12-22T04:26:31.723Z,18.5
2018-12-22T04:27:31.267Z,18.5
2018-12-22T04:28:31.834Z,18.5
2018-12-22T04:29:34.595Z,18.5
2018-12-22T04:30:31.855Z,18.5
2018-12-22T04:31:30.777Z,18.5
2018-12-22T04:32:31.443Z,18.5
2018-12-22T04:33:31.463Z,18.5
2018-12-22T04:34:32.020Z,18.5
2018-12-22T04:35:31.549Z,18.5
2018-12-22T04:36:31.372Z,18.5
2018-12-22T04:37:31.064Z,18.5
2018-12-22T04:38:31.379Z,18.5
2018-12-22T04:39:31.750Z,18.5
2018-12-22T04:40:31.712Z,18.5
2018-12-22T04:41:31.334Z,18.5
2018-12-22T04:42:31.418Z,18.5
2018-12-22T04:43:31.467Z,18.5
2018-12-22T04:44:31.723Z,18.5
2018-12-22T04:45:31.807Z,18.5
2018-12-22T04:46:31.573Z,18.5
2018-12-22T04:47:31.567Z,18.5
2018-12-22T04:48:31.385Z,18.5
2018-12-22T04:49:31.405Z,18.5
2018-12-22T04:50:31.643Z,18.5
2018-12-22T04:51:31.529Z,18.5
2018-12-22T04:52:31.082Z,18.5
2018-12-22T04:53:31.519Z,18.5
2018-12-22T04:54:31.345Z,18.5
2018-12-22T04:55:31.397Z,18.5
2018-12-22T04:56:31.456Z,18.5
2018-12-22T04:57:31.422Z,18.5
2018-12-22T04:58:31.511Z,18.5
2018-12-22T04:59:31.520Z,18.5
2018-12-22T05:00:31.321Z,18.5
2018-12-22T05:01:31.550Z,18.5
2018-12-22T05:02:31.836Z,18.5
2018-12-22T05:03:31.469Z,18.5
2018-12-22T05:04:31.412Z,18.5
2018-12-22T05:05:31.792Z,18.5
2018-12-22T05:06:31.532Z,18.5
2018-12-22T05:07:31.371Z,18.75
2018-12-22T05:08:31.601Z,18.75
2018-12-22T05:09:31.114Z,18.75
2018-12-22T05:10:31.468Z,18.75
2018-12-22T05:11:31.434Z,18.75
2018-12-22T05:12:31.685Z,18.75
2018-12-22T05:13:31.109Z,18.75
2018-12-22T05:14:31.630Z,18.75
2018-12-22T05:15:31.173Z,18.75
2018-12-22T05:16:32.247Z,18.75
2018-12-22T05:17:31.546Z,18.75
2018-12-22T05:18:31.526Z,18.75
2018-12-22T05:19:31.598Z,18.75
2018-12-22T05:20:31.419Z,18.75
2018-12-22T05:21:31.677Z,18.75
2018-12-22T05:22:31.481Z,18.75
2018-12-22T05:23:30.695Z,18.75
2018-12-22T05:24:31.272Z,18.75
2018-12-22T05:25:31.402Z,18.75
2018-12-22T05:26:31.378Z,18.75
2018-12-22T05:27:31.479Z,18.75
2018-12-22T05:28:31.440Z,18.75
2018-12-22T05:29:31.547Z,18.75
2018-12-22T05:30:31.369Z,19
2018-12-22T05:31:31.586Z,19
2018-12-22T05:32:31.648Z,19
2018-12-22T05:33:31.702Z,19
2018-12-22T05:34:31.462Z,19
2018-12-22T05:35:31.277Z,19
2018-12-22T05:36:31.833Z,19
2018-12-22T05:37:31.379Z,19
2018-12-22T05:38:31.673Z,19
2018-12-22T05:39:31.491Z,19
2018-12-22T05:40:31.231Z,19
2018-12-22T05:41:31.894Z,19
2018-12-22T05:42:31.598Z,19
2018-12-22T05:43:31.644Z,19
2018-12-22T05:44:31.467Z,19
2018-12-22T05:45:31.266Z,19
2018-12-22T05:46:31.568Z,19
2018-12-22T05:47:31.369Z,19
2018-12-22T05:48:31.377Z,19
2018-12-22T05:49:31.161Z,19
2018-12-22T05:50:31.233Z,19
2018-12-22T05:51:31.242Z,19
2018-12-22T05:52:31.796Z,19
2018-12-22T05:53:31.307Z,19
2018-12-22T05:54:31.631Z,19.25
2018-12-22T05:55:31.731Z,19.25
2018-12-22T05:56:31.495Z,19.25
2018-12-22T05:57:31.491Z,19.25
2018-12-22T05:58:31.243Z,19.25
2018-12-22T05:59:31.804Z,19.25
2018-12-22T06:00:31.339Z,19.25
2018-12-22T06:01:31.628Z,19.25
2018-12-22T06:02:31.170Z,19.25
2018-12-22T06:03:31.482Z,19.25
2018-12-22T06:04:31.786Z,19.25
2018-12-22T06:05:31.272Z,19.25
2018-12-22T06:06:30.939Z,19.25
2018-12-22T06:07:31.335Z,19.25
2018-12-22T06:08:31.787Z,19.25
2018-12-22T06:09:31.467Z,19.25
2018-12-22T06:10:31.238Z,19.25
2018-12-22T06:11:31.585Z,19.25
2018-12-22T06:12:31.342Z,19.25
2018-12-22T06:13:32.148Z,19.25
2018-12-22T06:14:31.469Z,19.25
2018-12-22T06:15:31.473Z,19.25
2018-12-22T06:16:31.523Z,19.25
2018-12-22T06:17:31.321Z,19.25
2018-12-22T06:18:31.853Z,19.25
2018-12-22T06:19:30.842Z,19.25
2018-12-22T06:20:31.681Z,19.25
2018-12-22T06:21:31.272Z,19.25
2018-12-22T06:22:31.542Z,19.25
2018-12-22T06:23:31.553Z,19.25
2018-12-22T06:24:31.306Z,19.25
2018-12-22T06:25:31.561Z,19.25
2018-12-22T06:26:31.359Z,19.25
2018-12-22T06:27:31.122Z,19.25
2018-12-22T06:28:31.358Z,19.25
2018-12-22T06:29:31.244Z,19.25
2018-12-22T06:30:31.769Z,19.25
2018-12-22T06:31:31.095Z,19.25
2018-12-22T06:32:31.345Z,19.25
2018-12-22T06:33:31.336Z,19.5
2018-12-22T06:34:30.973Z,19.5
2018-12-22T06:35:31.738Z,19.5
2018-12-22T06:36:31.532Z,19.5
2018-12-22T06:37:31.050Z,19.5
2018-12-22T06:38:31.328Z,19.5
2018-12-22T06:39:31.383Z,19.5
2018-12-22T06:40:30.897Z,19.5
2018-12-22T06:41:31.444Z,19.5
2018-12-22T06:42:31.257Z,19.5
2018-12-22T06:43:31.304Z,19.5
2018-12-22T06:44:31.319Z,19.5
2018-12-22T06:45:31.333Z,19.5
2018-12-22T06:46:31.617Z,19.5
2018-12-22T06:47:31.440Z,19.5
2018-12-22T06:48:31.477Z,19.5
2018-12-22T06:49:31.263Z,19.5
2018-12-22T06:50:31.599Z,19.5
2018-12-22T06:51:31.365Z,19.5
2018-12-22T06:52:31.352Z,19.5
2018-12-22T06:53:31.408Z,19.5
2018-12-22T06:54:31.747Z,19.5
2018-12-22T06:55:31.223Z,19.5
2018-12-22T06:56:31.515Z,19.5
2018-12-22T06:57:31.576Z,19.5
2018-12-22T06:58:31.372Z,19.5
2018-12-22T06:59:31.391Z,19.5
2018-12-22T07:00:31.483Z,19.5
2018-12-22T07:01:31.798Z,19.5
2018-12-22T07:02:31.006Z,19.5
2018-12-22T07:03:31.134Z,19.5
2018-12-22T07:04:31.379Z,19.5
2018-12-22T07:05:31.468Z,19.5
2018-12-22T07:06:31.242Z,19.5
2018-12-22T07:07:31.556Z,19.5
2018-12-22T07:08:31.583Z,19.5
2018-12-22T07:09:31.652Z,19.5
2018-12-22T07:10:31.381Z,19.5
2018-12-22T07:11:31.440Z,19.5
2018-12-22T07:12:31.502Z,19.5
2018-12-22T07:13:31.426Z,19.5
2018-12-22T07:14:31.392Z,19.5
2018-12-22T07:15:31.381Z,19.5
2018-12-22T07:16:31.176Z,19.5
2018-12-22T07:17:31.639Z,19.5
2018-12-22T07:18:31.635Z,19.5
2018-12-22T07:19:31.076Z,19.5
2018-12-22T07:20:31.836Z,19.5
2018-12-22T07:21:31.643Z,19.5
2018-12-22T07:22:30.929Z,19.5
2018-12-22T07:23:31.492Z,19.5
2018-12-22T07:24:31.196Z,19.5
2018-12-22T07:25:31.015Z,19.5
2018-12-22T07:26:31.312Z,19.5
2018-12-22T07:27:31.415Z,19.5
2018-12-22T07:28:31.362Z,19.5
2018-12-22T07:29:31.194Z,19.5
2018-12-22T07:30:31.789Z,19.5
2018-12-22T07:31:31.502Z,19.5
2018-12-22T07:32:30.771Z,19.5
2018-12-22T07:33:31.370Z,19.5
2018-12-22T07:34:31.585Z,19.5
2018-12-22T07:35:31.392Z,19.5
2018-12-22T07:36:31.182Z,19.5
2018-12-22T07:37:31.238Z,19.5
2018-12-22T07:38:31.529Z,19.75
2018-12-22T07:39:31.557Z,19.5
2018-12-22T07:40:31.521Z,19.75
2018-12-22T07:41:31.384Z,19.75
2018-12-22T07:42:31.397Z,19.75
2018-12-22T07:43:31.620Z,19.75
2018-12-22T07:44:31.233Z,19.75
2018-12-22T07:45:31.551Z,19.75
2018-12-22T07:46:32.051Z,19.75
2018-12-22T07:47:31.311Z,19.75
2018-12-22T07:48:31.605Z,19.75
2018-12-22T07:49:31.684Z,19.75
2018-12-22T07:50:31.460Z,19.75
2018-12-22T07:51:31.466Z,19.75
2018-12-22T07:52:31.237Z,19.75
2018-12-22T07:53:31.823Z,19.75
2018-12-22T07:54:31.366Z,19.75
2018-12-22T07:55:31.383Z,19.75
2018-12-22T07:56:31.424Z,19.75
2018-12-22T07:57:31.718Z,19.75
2018-12-22T07:58:31.472Z,19.75
2018-12-22T07:59:31.255Z,19.75
2018-12-22T08:00:35.503Z,19.75
2018-12-22T08:01:31.295Z,19.75
2018-12-22T08:02:31.399Z,19.75
2018-12-22T08:03:31.375Z,19.75
2018-12-22T08:04:31.417Z,19.75
2018-12-22T08:05:39.307Z,19.75
2018-12-22T08:06:31.160Z,19.75
2018-12-22T08:07:31.740Z,19.75
2018-12-22T08:08:31.217Z,19.75
2018-12-22T08:09:31.369Z,19.75
2018-12-22T08:10:31.164Z,19.75
2018-12-22T08:11:31.467Z,19.75
2018-12-22T08:12:31.452Z,19.75
2018-12-22T08:13:31.741Z,19.75
2018-12-22T08:14:31.318Z,19.75
2018-12-22T08:15:31.306Z,19.75
2018-12-22T08:16:31.102Z,19.75
2018-12-22T08:17:31.387Z,19.75
2018-12-22T08:18:31.459Z,19.75
2018-12-22T08:19:31.292Z,19.75
2018-12-22T08:20:31.261Z,19.75
2018-12-22T08:21:31.375Z,19.75
2018-12-22T08:22:30.861Z,19.75
2018-12-22T08:23:31.429Z,19.75
2018-12-22T08:24:31.228Z,19.75
2018-12-22T08:25:31.049Z,19.75
2018-12-22T08:26:31.804Z,19.75
2018-12-22T08:27:31.345Z,19.75
2018-12-22T08:28:31.140Z,19.75
2018-12-22T08:29:31.452Z,19.75
2018-12-22T08:30:31.717Z,19.75
2018-12-22T08:31:31.505Z,19.75
2018-12-22T08:32:31.584Z,19.75
2018-12-22T08:33:31.378Z,19.75
2018-12-22T08:34:31.658Z,19.75
2018-12-22T08:35:31.132Z,19.75
2018-12-22T08:36:31.400Z,19.75
2018-12-22T08:37:31.207Z,19.75
2018-12-22T08:38:31.258Z,19.75
2018-12-22T08:39:31.356Z,19.75
2018-12-22T08:40:31.103Z,19.75
2018-12-22T08:41:31.366Z,19.75
2018-12-22T08:42:31.447Z,19.75
2018-12-22T08:43:31.432Z,19.75
2018-12-22T08:44:31.257Z,19.75
2018-12-22T08:45:31.370Z,19.75
2018-12-22T08:46:31.301Z,19.75
2018-12-22T08:47:30.809Z,19.75
2018-12-22T08:48:31.437Z,19.75
2018-12-22T08:49:32.165Z,19.75
2018-12-22T08:50:31.508Z,19.75
2018-12-22T08:51:30.473Z,19.75
2018-12-22T08:52:31.595Z,19.75
2018-12-22T08:53:31.337Z,19.75
2018-12-22T08:54:31.453Z,19.75
2018-12-22T08:55:31.428Z,19.75
2018-12-22T08:56:30.935Z,19.75
2018-12-22T08:57:31.553Z,19.75
2018-12-22T08:58:31.658Z,19.75
2018-12-22T08:59:31.078Z,19.75
2018-12-22T09:00:31.438Z,19.75
2018-12-22T09:01:31.180Z,19.75
2018-12-22T09:02:31.251Z,19.75
2018-12-22T09:03:31.560Z,19.75
2018-12-22T09:04:31.548Z,19.75
2018-12-22T09:05:31.432Z,19.75
2018-12-22T09:06:31.669Z,19.75
2018-12-22T09:07:31.416Z,19.75
2018-12-22T09:08:30.910Z,19.75
2018-12-22T09:09:31.374Z,19.75
2018-12-22T09:10:31.354Z,19.75
2018-12-22T09:11:31.680Z,19.75
2018-12-22T09:12:32.218Z,20
2018-12-22T09:13:31.261Z,19.75
2018-12-22T09:14:31.761Z,20
2018-12-22T09:15:31.363Z,19.75
2018-12-22T09:16:31.371Z,19.75
2018-12-22T09:17:31.426Z,19.75
2018-12-22T09:18:31.175Z,19.75
2018-12-22T09:19:31.289Z,19.75
2018-12-22T09:20:31.999Z,19.75
2018-12-22T09:21:31.583Z,19.75
2018-12-22T09:22:31.083Z,19.75
2018-12-22T09:23:31.643Z,19.75
2018-12-22T09:24:31.203Z,20
2018-12-22T09:25:31.214Z,19.75
2018-12-22T09:26:31.312Z,19.75
2018-12-22T09:27:31.600Z,19.75
2018-12-22T09:28:31.403Z,19.75
2018-12-22T09:29:31.409Z,19.75
2018-12-22T09:30:31.187Z,19.75
2018-12-22T09:31:33.327Z,19.75
2018-12-22T09:32:31.532Z,19.75
2018-12-22T09:33:31.310Z,19.75
2018-12-22T09:34:32.105Z,19.75
2018-12-22T09:35:31.387Z,19.75
2018-12-22T09:36:31.199Z,19.75
2018-12-22T09:37:31.476Z,19.75
2018-12-22T09:38:31.242Z,19.75
2018-12-22T09:39:31.275Z,19.75
2018-12-22T09:40:31.524Z,20
2018-12-22T09:41:32.156Z,20
2018-12-22T09:42:31.190Z,19.75
2018-12-22T09:43:30.960Z,19.75
2018-12-22T09:44:31.561Z,19.75
2018-12-22T09:45:31.538Z,20
2018-12-22T09:46:32.140Z,20
2018-12-22T09:47:31.463Z,20
2018-12-22T09:48:31.202Z,20
2018-12-22T09:49:31.175Z,20
2018-12-22T09:50:31.294Z,20
2018-12-22T09:51:31.267Z,20
2018-12-22T09:52:31.057Z,20
2018-12-22T09:53:31.177Z,20
2018-12-22T09:54:31.342Z,20
2018-12-22T09:55:31.199Z,20
2018-12-22T09:56:31.462Z,20
2018-12-22T09:57:31.218Z,20
2018-12-22T09:58:31.002Z,20
2018-12-22T09:59:31.333Z,20
2018-12-22T10:00:31.616Z,20
2018-12-22T10:01:30.879Z,20
2018-12-22T10:02:31.184Z,20
2018-12-22T10:03:31.191Z,20
2018-12-22T10:04:31.272Z,20
2018-12-22T10:05:31.294Z,20
2018-12-22T10:06:31.564Z,20
2018-12-22T10:07:31.338Z,20
2018-12-22T10:08:31.635Z,20
2018-12-22T10:09:31.590Z,20
2018-12-22T10:10:31.178Z,20
2018-12-22T10:11:31.313Z,20
2018-12-22T10:12:31.571Z,20
2018-12-22T10:13:31.346Z,20
2018-12-22T10:14:31.335Z,20.25
2018-12-22T10:15:31.416Z,20.25
2018-12-22T10:16:28.230Z,20.25
2018-12-22T10:17:28.316Z,20.25
2018-12-22T10:18:28.463Z,20.25
2018-12-22T10:19:11.360Z,20.25
2018-12-22T10:20:11.654Z,20.25
2018-12-22T10:21:11.458Z,20.25
2018-12-22T10:22:11.518Z,20.5
2018-12-22T10:23:11.794Z,20.5
2018-12-22T10:24:11.591Z,20.5
2018-12-22T10:25:11.591Z,20.5
2018-12-22T10:26:11.676Z,20.5
2018-12-22T10:27:12.204Z,20.5
2018-12-22T10:28:11.499Z,20.5
2018-12-22T10:29:11.792Z,20.5
2018-12-22T10:30:11.251Z,20.5
2018-12-22T10:31:18.542Z,20.5
2018-12-22T10:32:11.274Z,20.5
2018-12-22T10:33:11.302Z,20.5
2018-12-22T10:34:11.875Z,20.5
2018-12-22T10:35:11.121Z,20.5
2018-12-22T10:36:11.473Z,20.5
2018-12-22T10:37:11.772Z,20.75
2018-12-22T10:38:11.796Z,20.75
2018-12-22T10:39:11.362Z,20.75
2018-12-22T10:40:11.844Z,20.75
2018-12-22T10:41:11.611Z,20.75
2018-12-22T10:42:11.365Z,20.75
2018-12-22T10:42:49.403Z,20.75
2018-12-22T10:43:49.479Z,20.75
2018-12-22T10:44:49.477Z,20.75
2018-12-22T10:45:38.743Z,20.75
2018-12-22T10:46:38.490Z,20.75
2018-12-22T10:47:38.791Z,20.75
2018-12-22T10:48:38.302Z,20.75
2018-12-22T10:49:38.861Z,20.75
2018-12-22T10:50:37.798Z,20.75
2018-12-22T10:51:38.939Z,20.75
2018-12-22T10:52:38.949Z,20.75
2018-12-22T10:53:55.445Z,20.75
2018-12-22T10:54:54.997Z,20.75
2018-12-22T10:55:55.285Z,21
2018-12-22T10:56:55.008Z,21
2018-12-22T10:57:55.337Z,21
2018-12-22T10:58:40.673Z,21
2018-12-22T10:59:40.487Z,21
2018-12-22T11:00:40.328Z,21
2018-12-22T11:02:40.367Z,21
2018-12-22T11:03:39.817Z,21
2018-12-22T11:04:40.230Z,21
2018-12-22T11:06:14.209Z,21
2018-12-22T11:07:14.017Z,21
2018-12-22T11:08:14.493Z,21
2018-12-22T11:09:14.806Z,21
2018-12-22T11:10:14.251Z,21
2018-12-22T11:11:14.191Z,21
2018-12-22T11:12:14.201Z,21
2018-12-22T11:13:14.257Z,21
2018-12-22T11:14:14.092Z,21
2018-12-22T11:15:14.218Z,21
2018-12-22T11:16:14.537Z,21
2018-12-22T11:17:14.235Z,21
2018-12-22T11:18:14.220Z,21
2018-12-22T11:19:14.159Z,21
2018-12-22T11:20:14.147Z,21
2018-12-22T11:21:14.421Z,21
2018-12-22T11:22:14.952Z,21
2018-12-22T11:23:20.961Z,21
2018-12-22T11:24:14.435Z,21
2018-12-22T11:25:13.861Z,21
2018-12-22T11:26:13.854Z,21
2018-12-22T11:27:13.803Z,21
2018-12-22T11:28:14.271Z,21
2018-12-22T11:29:14.571Z,21
2018-12-22T11:30:14.306Z,21
2018-12-22T11:31:14.226Z,21
2018-12-22T11:32:14.191Z,21
2018-12-22T11:33:14.223Z,21
2018-12-22T11:34:14.269Z,21
2018-12-22T11:35:14.204Z,21
2018-12-22T11:36:14.401Z,21
2018-12-22T11:37:14.148Z,21
2018-12-22T11:38:14.359Z,21
2018-12-22T11:39:14.096Z,21
2018-12-22T11:40:14.374Z,21
2018-12-22T11:41:14.175Z,21
2018-12-22T11:42:14.313Z,21
2018-12-22T11:43:14.107Z,21
2018-12-22T11:44:14.133Z,21
2018-12-22T11:45:12.905Z,21
2018-12-22T11:46:14.124Z,21
2018-12-22T11:47:14.087Z,21
2018-12-22T11:48:14.321Z,21
2018-12-22T11:49:13.891Z,21
2018-12-22T11:50:14.111Z,21
2018-12-22T11:51:14.342Z,21
2018-12-22T11:52:14.794Z,21
2018-12-22T11:53:14.008Z,21
2018-12-22T11:54:14.777Z,21
2018-12-22T11:55:14.618Z,21
2018-12-22T11:56:14.251Z,21
2018-12-22T11:57:14.013Z,21
2018-12-22T11:58:14.508Z,21
2018-12-22T11:59:14.157Z,21
2018-12-22T12:00:19.016Z,21
2018-12-22T12:01:14.386Z,21
2018-12-22T12:02:13.869Z,21
2018-12-22T12:03:14.119Z,21
2018-12-22T12:04:14.584Z,21
2018-12-22T12:05:14.101Z,21
2018-12-22T12:06:14.329Z,21
2018-12-22T12:07:14.351Z,21
2018-12-22T12:08:14.498Z,21
2018-12-22T12:09:14.278Z,21
2018-12-22T12:10:14.270Z,21
2018-12-22T12:11:14.419Z,21
2018-12-22T12:12:14.234Z,21
2018-12-22T12:13:14.482Z,21
2018-12-22T12:14:14.710Z,21
2018-12-22T12:15:13.032Z,21
2018-12-22T12:16:14.461Z,21
2018-12-22T12:17:14.209Z,21
2018-12-22T12:17:54.652Z,21
2018-12-22T12:18:54.385Z,21
2018-12-22T12:20:01.551Z,21
2018-12-22T12:22:16.963Z,21.25
2018-12-22T12:23:18.389Z,21.25
2018-12-22T12:24:18.401Z,21.25
2018-12-22T12:25:17.962Z,21.25
2018-12-22T12:26:18.235Z,21.25
2018-12-22T12:27:18.301Z,21.25
2018-12-22T12:28:18.723Z,21.25
2018-12-22T12:29:19.281Z,21.25
2018-12-22T12:30:18.706Z,21.25
2018-12-22T12:31:18.752Z,21.25
2018-12-22T12:31:53.094Z,21.25
2018-12-22T12:32:52.984Z,21.25
2018-12-22T12:33:24.078Z,21.25
2018-12-22T12:34:24.190Z,21.25
2018-12-22T12:35:24.223Z,21.25
2018-12-22T12:36:24.260Z,21.25
2018-12-22T12:37:24.250Z,21.25
2018-12-22T12:38:24.973Z,21.25
2018-12-22T12:39:24.486Z,21.25
2018-12-22T12:40:24.486Z,21.25
2018-12-22T12:41:35.508Z,21.25
2018-12-22T12:42:17.505Z,21.25
2018-12-22T12:43:17.266Z,21.25
2018-12-22T12:44:16.958Z,21.25
2018-12-22T12:45:17.219Z,21.25
2018-12-22T12:46:17.464Z,21.25
2018-12-22T12:47:17.188Z,21.25
2018-12-22T12:48:17.171Z,21.25
2018-12-22T12:49:16.157Z,21.25
2018-12-22T12:50:16.954Z,21.25
2018-12-22T12:51:07.688Z,21.25
2018-12-22T12:52:07.413Z,21.25
2018-12-22T12:53:10.173Z,21.25
2018-12-22T12:54:07.574Z,21.25
2018-12-22T12:55:07.926Z,21.25
2018-12-22T12:56:07.639Z,21.25
2018-12-22T12:57:06.849Z,21.25
2018-12-22T12:58:08.193Z,21.25
2018-12-22T12:59:07.726Z,21.25
2018-12-22T13:00:07.743Z,21.25
2018-12-22T13:01:07.565Z,21.25
2018-12-22T13:02:07.404Z,21.25
2018-12-22T13:03:08.780Z,21.25
2018-12-22T13:04:06.658Z,21.25
2018-12-22T13:05:07.520Z,21.25
2018-12-22T13:06:07.776Z,21.25
2018-12-22T13:07:07.259Z,21.25
2018-12-22T13:08:07.412Z,21.25
2018-12-22T13:09:07.276Z,21.25
2018-12-22T13:10:07.499Z,21.25
2018-12-22T13:11:07.646Z,21.25
2018-12-22T13:12:07.477Z,21.25
2018-12-22T13:13:07.608Z,21.25
2018-12-22T13:14:08.083Z,21.25
2018-12-22T13:15:07.557Z,21.25
2018-12-22T13:16:07.526Z,21.25
2018-12-22T13:17:07.591Z,21.25
2018-12-22T13:18:07.507Z,21.25
2018-12-22T13:19:07.539Z,21.25
2018-12-22T13:20:07.757Z,21.25